sensor_id;sensor_type;location;lat;lon;timestamp;temperature;humidity
5980;DHT22;3016;50.308;8.258;2022-07-06T00:02:00;13.40;1.00
5980;DHT22;3016;50.308;8.258;2022-07-06T00:05:01;13.40;1.00
5980;DHT22;3016;50.308;8.258;2022-07-06T00:08:02;13.30;1.00
5980;DHT22;3016;50.308;8.258;2022-07-06T00:11:02;13.30;1.00
5980;DHT22;3016;50.308;8.258;2022-07-06T00:14:04;13.30;1.00
5980;DHT22;3016;50.308;8.258;2022-07-06T00:17:04;13.20;1.00
5980;DHT22;3016;50.308;8.258;2022-07-06T00:20:05;13.10;1.00
5980;DHT22;3016;50.308;8.258;2022-07-06T00:23:06;13.00;1.00
5980;DHT22;3016;50.308;8.258;2022-07-06T00:26:07;13.00;1.00
5980;DHT22;3016;50.308;8.258;2022-07-06T00:29:08;13.00;1.00
5980;DHT22;3016;50.308;8.258;2022-07-06T00:32:12;12.90;1.00
5980;DHT22;3016;50.308;8.258;2022-07-06T00:35:13;12.90;1.00
5980;DHT22;3016;50.308;8.258;2022-07-06T00:38:13;12.80;1.00
5980;DHT22;3016;50.308;8.258;2022-07-06T00:41:14;12.80;1.00
5980;DHT22;3016;50.308;8.258;2022-07-06T00:44:15;12.70;1.00
5980;DHT22;3016;50.308;8.258;2022-07-06T00:47:16;12.70;1.00
5980;DHT22;3016;50.308;8.258;2022-07-06T00:50:17;12.70;1.00
5980;DHT22;3016;50.308;8.258;2022-07-06T00:53:21;12.60;1.00
5980;DHT22;3016;50.308;8.258;2022-07-06T00:56:22;12.60;1.00
5980;DHT22;3016;50.308;8.258;2022-07-06T00:59:24;12.50;1.00
5980;DHT22;3016;50.308;8.258;2022-07-06T01:02:25;12.50;1.00
5980;DHT22;3016;50.308;8.258;2022-07-06T01:05:26;12.50;1.00
5980;DHT22;3016;50.308;8.258;2022-07-06T01:08:28;12.40;1.00
5980;DHT22;3016;50.308;8.258;2022-07-06T01:11:29;12.40;1.00
5980;DHT22;3016;50.308;8.258;2022-07-06T01:14:30;12.40;1.00
5980;DHT22;3016;50.308;8.258;2022-07-06T01:17:35;12.30;1.00
5980;DHT22;3016;50.308;8.258;2022-07-06T01:20:35;12.20;1.00
5980;DHT22;3016;50.308;8.258;2022-07-06T01:23:44;12.20;1.00
5980;DHT22;3016;50.308;8.258;2022-07-06T01:26:45;12.10;1.00
5980;DHT22;3016;50.308;8.258;2022-07-06T01:29:46;12.10;1.00
5980;DHT22;3016;50.308;8.258;2022-07-06T01:32:47;12.00;1.00
5980;DHT22;3016;50.308;8.258;2022-07-06T01:35:49;12.00;1.00
5980;DHT22;3016;50.308;8.258;2022-07-06T01:38:53;12.00;1.00
5980;DHT22;3016;50.308;8.258;2022-07-06T01:41:55;11.90;1.00
5980;DHT22;3016;50.308;8.258;2022-07-06T01:44:55;11.90;1.00
5980;DHT22;3016;50.308;8.258;2022-07-06T01:47:56;11.80;1.00
5980;DHT22;3016;50.308;8.258;2022-07-06T01:50:57;11.70;1.00
5980;DHT22;3016;50.308;8.258;2022-07-06T01:53:58;11.70;1.00
5980;DHT22;3016;50.308;8.258;2022-07-06T01:56:58;11.70;1.00
5980;DHT22;3016;50.308;8.258;2022-07-06T01:59:59;11.70;1.00
5980;DHT22;3016;50.308;8.258;2022-07-06T02:03:00;11.70;1.00
5980;DHT22;3016;50.308;8.258;2022-07-06T02:06:00;11.60;1.00
5980;DHT22;3016;50.308;8.258;2022-07-06T02:09:01;11.60;1.00
5980;DHT22;3016;50.308;8.258;2022-07-06T02:12:03;11.60;1.00
5980;DHT22;3016;50.308;8.258;2022-07-06T02:15:04;11.50;1.00
5980;DHT22;3016;50.308;8.258;2022-07-06T02:18:05;11.40;1.00
5980;DHT22;3016;50.308;8.258;2022-07-06T02:21:06;11.40;1.00
5980;DHT22;3016;50.308;8.258;2022-07-06T02:24:06;11.40;1.00
5980;DHT22;3016;50.308;8.258;2022-07-06T02:27:07;11.30;1.00
5980;DHT22;3016;50.308;8.258;2022-07-06T02:30:08;11.30;1.00
5980;DHT22;3016;50.308;8.258;2022-07-06T02:33:09;11.20;1.00
5980;DHT22;3016;50.308;8.258;2022-07-06T02:36:10;11.10;1.00
5980;DHT22;3016;50.308;8.258;2022-07-06T02:39:10;11.10;1.00
5980;DHT22;3016;50.308;8.258;2022-07-06T02:42:11;11.10;1.00
5980;DHT22;3016;50.308;8.258;2022-07-06T02:45:12;11.10;1.00
5980;DHT22;3016;50.308;8.258;2022-07-06T02:48:13;11.10;1.00
5980;DHT22;3016;50.308;8.258;2022-07-06T02:51:13;11.10;1.00
5980;DHT22;3016;50.308;8.258;2022-07-06T02:54:14;11.00;1.00
5980;DHT22;3016;50.308;8.258;2022-07-06T02:57:15;11.00;1.00
5980;DHT22;3016;50.308;8.258;2022-07-06T03:00:16;11.00;1.00
5980;DHT22;3016;50.308;8.258;2022-07-06T03:03:17;11.00;1.00
5980;DHT22;3016;50.308;8.258;2022-07-06T03:06:18;11.00;1.00
5980;DHT22;3016;50.308;8.258;2022-07-06T03:09:18;10.90;1.00
5980;DHT22;3016;50.308;8.258;2022-07-06T03:12:19;10.90;1.00
5980;DHT22;3016;50.308;8.258;2022-07-06T03:15:20;10.90;1.00
5980;DHT22;3016;50.308;8.258;2022-07-06T03:18:21;10.80;1.00
5980;DHT22;3016;50.308;8.258;2022-07-06T03:21:23;10.80;1.00
5980;DHT22;3016;50.308;8.258;2022-07-06T03:24:26;10.80;1.00
5980;DHT22;3016;50.308;8.258;2022-07-06T03:27:28;10.80;1.00
5980;DHT22;3016;50.308;8.258;2022-07-06T03:30:28;10.80;1.00
5980;DHT22;3016;50.308;8.258;2022-07-06T03:33:29;10.80;1.00
5980;DHT22;3016;50.308;8.258;2022-07-06T03:36:30;10.80;1.00
5980;DHT22;3016;50.308;8.258;2022-07-06T03:39:30;10.80;1.00
5980;DHT22;3016;50.308;8.258;2022-07-06T03:42:31;10.80;1.00
5980;DHT22;3016;50.308;8.258;2022-07-06T03:45:32;10.80;1.00
5980;DHT22;3016;50.308;8.258;2022-07-06T03:48:32;10.80;1.00
5980;DHT22;3016;50.308;8.258;2022-07-06T03:51:33;10.90;1.00
5980;DHT22;3016;50.308;8.258;2022-07-06T03:54:33;10.90;1.00
5980;DHT22;3016;50.308;8.258;2022-07-06T03:57:34;10.90;1.00
5980;DHT22;3016;50.308;8.258;2022-07-06T04:00:35;11.00;1.00
5980;DHT22;3016;50.308;8.258;2022-07-06T04:03:35;11.00;2.30
5980;DHT22;3016;50.308;8.258;2022-07-06T04:06:36;11.10;1.00
5980;DHT22;3016;50.308;8.258;2022-07-06T04:09:37;11.10;1.00
5980;DHT22;3016;50.308;8.258;2022-07-06T04:12:44;11.20;1.00
5980;DHT22;3016;50.308;8.258;2022-07-06T04:15:45;11.30;1.00
5980;DHT22;3016;50.308;8.258;2022-07-06T04:18:46;11.30;1.00
5980;DHT22;3016;50.308;8.258;2022-07-06T04:21:46;11.40;1.00
5980;DHT22;3016;50.308;8.258;2022-07-06T04:24:47;11.50;1.00
5980;DHT22;3016;50.308;8.258;2022-07-06T04:27:51;11.50;1.00
5980;DHT22;3016;50.308;8.258;2022-07-06T04:30:52;11.60;1.00
5980;DHT22;3016;50.308;8.258;2022-07-06T04:33:52;11.60;1.00
5980;DHT22;3016;50.308;8.258;2022-07-06T04:36:53;11.70;1.00
5980;DHT22;3016;50.308;8.258;2022-07-06T04:39:54;11.70;1.00
5980;DHT22;3016;50.308;8.258;2022-07-06T04:42:54;11.80;1.00
5980;DHT22;3016;50.308;8.258;2022-07-06T04:45:55;11.90;1.00
5980;DHT22;3016;50.308;8.258;2022-07-06T04:48:56;12.00;1.00
5980;DHT22;3016;50.308;8.258;2022-07-06T04:51:59;12.10;1.00
5980;DHT22;3016;50.308;8.258;2022-07-06T04:55:00;12.20;1.00
5980;DHT22;3016;50.308;8.258;2022-07-06T04:58:02;12.30;1.00
5980;DHT22;3016;50.308;8.258;2022-07-06T05:01:03;12.50;1.00
5980;DHT22;3016;50.308;8.258;2022-07-06T05:04:07;12.60;1.00
5980;DHT22;3016;50.308;8.258;2022-07-06T05:07:08;12.80;1.00
5980;DHT22;3016;50.308;8.258;2022-07-06T05:10:10;13.00;1.00
5980;DHT22;3016;50.308;8.258;2022-07-06T05:13:11;13.10;1.00
5980;DHT22;3016;50.308;8.258;2022-07-06T05:16:12;13.30;1.00
5980;DHT22;3016;50.308;8.258;2022-07-06T05:19:12;13.60;1.00
5980;DHT22;3016;50.308;8.258;2022-07-06T05:22:13;13.80;1.00
5980;DHT22;3016;50.308;8.258;2022-07-06T05:25:14;14.00;1.00
5980;DHT22;3016;50.308;8.258;2022-07-06T05:28:15;14.20;1.00
5980;DHT22;3016;50.308;8.258;2022-07-06T05:31:16;14.20;1.00
5980;DHT22;3016;50.308;8.258;2022-07-06T05:34:16;14.20;1.00
5980;DHT22;3016;50.308;8.258;2022-07-06T05:37:17;14.20;1.00
5980;DHT22;3016;50.308;8.258;2022-07-06T05:40:18;14.30;1.00
5980;DHT22;3016;50.308;8.258;2022-07-06T05:43:18;14.40;1.00
5980;DHT22;3016;50.308;8.258;2022-07-06T05:46:19;14.40;1.00
5980;DHT22;3016;50.308;8.258;2022-07-06T05:49:20;14.50;1.00
5980;DHT22;3016;50.308;8.258;2022-07-06T05:52:44;14.60;1.00
5980;DHT22;3016;50.308;8.258;2022-07-06T05:55:46;14.60;1.00
5980;DHT22;3016;50.308;8.258;2022-07-06T05:58:47;14.50;1.00
5980;DHT22;3016;50.308;8.258;2022-07-06T06:01:47;14.40;1.00
5980;DHT22;3016;50.308;8.258;2022-07-06T06:04:48;14.40;1.00
5980;DHT22;3016;50.308;8.258;2022-07-06T06:07:49;14.40;1.00
5980;DHT22;3016;50.308;8.258;2022-07-06T06:10:52;14.40;1.00
5980;DHT22;3016;50.308;8.258;2022-07-06T06:13:53;14.60;1.00
5980;DHT22;3016;50.308;8.258;2022-07-06T06:17:31;14.70;1.00
5980;DHT22;3016;50.308;8.258;2022-07-06T06:20:32;14.80;1.00
5980;DHT22;3016;50.308;8.258;2022-07-06T06:23:33;15.00;1.00
5980;DHT22;3016;50.308;8.258;2022-07-06T06:26:33;15.10;1.00
5980;DHT22;3016;50.308;8.258;2022-07-06T06:29:34;15.20;1.00
5980;DHT22;3016;50.308;8.258;2022-07-06T06:32:35;15.40;1.00
5980;DHT22;3016;50.308;8.258;2022-07-06T06:35:37;15.80;1.00
5980;DHT22;3016;50.308;8.258;2022-07-06T06:38:47;16.00;1.00
5980;DHT22;3016;50.308;8.258;2022-07-06T06:41:48;16.20;1.00
5980;DHT22;3016;50.308;8.258;2022-07-06T06:44:49;16.30;1.00
5980;DHT22;3016;50.308;8.258;2022-07-06T06:47:49;16.10;1.00
5980;DHT22;3016;50.308;8.258;2022-07-06T06:50:50;16.40;1.00
5980;DHT22;3016;50.308;8.258;2022-07-06T06:53:51;16.40;1.00
5980;DHT22;3016;50.308;8.258;2022-07-06T06:56:51;16.60;1.00
5980;DHT22;3016;50.308;8.258;2022-07-06T06:59:52;16.60;1.00
5980;DHT22;3016;50.308;8.258;2022-07-06T07:02:53;16.50;1.00
5980;DHT22;3016;50.308;8.258;2022-07-06T07:05:53;16.80;1.00
5980;DHT22;3016;50.308;8.258;2022-07-06T07:08:54;17.10;1.00
5980;DHT22;3016;50.308;8.258;2022-07-06T07:11:56;17.50;1.00
5980;DHT22;3016;50.308;8.258;2022-07-06T07:14:58;17.60;1.00
5980;DHT22;3016;50.308;8.258;2022-07-06T07:17:58;17.40;1.00
5980;DHT22;3016;50.308;8.258;2022-07-06T07:20:59;17.50;1.00
5980;DHT22;3016;50.308;8.258;2022-07-06T07:24:00;17.60;1.00
5980;DHT22;3016;50.308;8.258;2022-07-06T07:27:01;17.60;1.00
5980;DHT22;3016;50.308;8.258;2022-07-06T07:30:02;17.80;1.00
5980;DHT22;3016;50.308;8.258;2022-07-06T07:33:03;17.90;1.00
5980;DHT22;3016;50.308;8.258;2022-07-06T07:36:04;18.10;1.00
5980;DHT22;3016;50.308;8.258;2022-07-06T07:39:05;17.90;1.00
5980;DHT22;3016;50.308;8.258;2022-07-06T07:42:06;17.60;1.00
5980;DHT22;3016;50.308;8.258;2022-07-06T07:45:08;17.30;1.00
5980;DHT22;3016;50.308;8.258;2022-07-06T07:48:09;17.40;1.00
5980;DHT22;3016;50.308;8.258;2022-07-06T07:51:10;17.70;1.00
5980;DHT22;3016;50.308;8.258;2022-07-06T07:54:10;18.20;1.00
5980;DHT22;3016;50.308;8.258;2022-07-06T07:57:11;18.50;1.00
5980;DHT22;3016;50.308;8.258;2022-07-06T08:00:13;18.60;1.00
5980;DHT22;3016;50.308;8.258;2022-07-06T08:03:13;18.70;1.00
5980;DHT22;3016;50.308;8.258;2022-07-06T08:06:14;19.00;1.00
5980;DHT22;3016;50.308;8.258;2022-07-06T08:09:15;19.20;1.00
5980;DHT22;3016;50.308;8.258;2022-07-06T08:12:16;18.70;1.00
5980;DHT22;3016;50.308;8.258;2022-07-06T08:15:17;18.20;1.00
5980;DHT22;3016;50.308;8.258;2022-07-06T08:18:18;18.20;1.00
5980;DHT22;3016;50.308;8.258;2022-07-06T08:21:19;18.40;1.00
5980;DHT22;3016;50.308;8.258;2022-07-06T08:24:20;18.70;1.00
5980;DHT22;3016;50.308;8.258;2022-07-06T08:27:20;18.90;1.00
5980;DHT22;3016;50.308;8.258;2022-07-06T08:30:21;19.20;1.00
5980;DHT22;3016;50.308;8.258;2022-07-06T08:33:22;19.60;1.00
5980;DHT22;3016;50.308;8.258;2022-07-06T08:36:23;19.90;1.00
5980;DHT22;3016;50.308;8.258;2022-07-06T08:39:26;20.30;1.00
5980;DHT22;3016;50.308;8.258;2022-07-06T08:42:30;20.40;1.00
5980;DHT22;3016;50.308;8.258;2022-07-06T08:45:34;20.60;1.00
5980;DHT22;3016;50.308;8.258;2022-07-06T08:48:37;20.90;1.00
5980;DHT22;3016;50.308;8.258;2022-07-06T08:51:40;20.10;1.00
5980;DHT22;3016;50.308;8.258;2022-07-06T08:54:41;19.50;1.00
5980;DHT22;3016;50.308;8.258;2022-07-06T08:57:42;19.30;1.00
5980;DHT22;3016;50.308;8.258;2022-07-06T09:00:48;19.20;1.00
5980;DHT22;3016;50.308;8.258;2022-07-06T09:03:50;19.60;1.00
5980;DHT22;3016;50.308;8.258;2022-07-06T09:06:51;19.60;1.00
5980;DHT22;3016;50.308;8.258;2022-07-06T09:09:52;19.40;1.00
5980;DHT22;3016;50.308;8.258;2022-07-06T09:13:02;19.20;1.00
5980;DHT22;3016;50.308;8.258;2022-07-06T09:16:15;19.30;1.00
5980;DHT22;3016;50.308;8.258;2022-07-06T09:19:16;19.50;1.00
5980;DHT22;3016;50.308;8.258;2022-07-06T09:25:27;20.10;1.00
5980;DHT22;3016;50.308;8.258;2022-07-06T09:28:44;20.10;1.00
5980;DHT22;3016;50.308;8.258;2022-07-06T09:31:56;19.50;1.00
5980;DHT22;3016;50.308;8.258;2022-07-06T09:35:00;19.20;1.00
5980;DHT22;3016;50.308;8.258;2022-07-06T09:41:09;19.90;1.00
5980;DHT22;3016;50.308;8.258;2022-07-06T09:44:10;20.60;1.00
5980;DHT22;3016;50.308;8.258;2022-07-06T09:47:11;20.40;1.00
5980;DHT22;3016;50.308;8.258;2022-07-06T09:50:15;20.20;1.00
5980;DHT22;3016;50.308;8.258;2022-07-06T09:53:18;20.10;1.00
5980;DHT22;3016;50.308;8.258;2022-07-06T09:56:20;20.20;1.00
5980;DHT22;3016;50.308;8.258;2022-07-06T09:59:22;20.20;1.00
5980;DHT22;3016;50.308;8.258;2022-07-06T10:02:24;20.50;1.00
5980;DHT22;3016;50.308;8.258;2022-07-06T10:05:27;20.80;1.00
5980;DHT22;3016;50.308;8.258;2022-07-06T10:08:32;21.10;1.00
5980;DHT22;3016;50.308;8.258;2022-07-06T10:11:48;21.80;1.00
5980;DHT22;3016;50.308;8.258;2022-07-06T10:14:51;21.70;1.00
5980;DHT22;3016;50.308;8.258;2022-07-06T10:17:52;21.20;1.00
5980;DHT22;3016;50.308;8.258;2022-07-06T10:20:54;20.60;1.00
5980;DHT22;3016;50.308;8.258;2022-07-06T10:23:55;20.40;1.00
5980;DHT22;3016;50.308;8.258;2022-07-06T10:27:00;20.80;1.00
5980;DHT22;3016;50.308;8.258;2022-07-06T10:30:01;21.10;1.00
5980;DHT22;3016;50.308;8.258;2022-07-06T10:33:02;20.90;1.00
5980;DHT22;3016;50.308;8.258;2022-07-06T10:36:04;20.50;1.00
5980;DHT22;3016;50.308;8.258;2022-07-06T10:39:05;20.30;1.00
5980;DHT22;3016;50.308;8.258;2022-07-06T10:42:48;20.30;1.00
5980;DHT22;3016;50.308;8.258;2022-07-06T10:45:50;20.70;1.00
5980;DHT22;3016;50.308;8.258;2022-07-06T10:48:52;20.90;1.00
5980;DHT22;3016;50.308;8.258;2022-07-06T10:51:52;20.90;1.00
5980;DHT22;3016;50.308;8.258;2022-07-06T10:54:56;20.40;1.00
5980;DHT22;3016;50.308;8.258;2022-07-06T10:57:57;20.30;1.00
5980;DHT22;3016;50.308;8.258;2022-07-06T11:00:58;20.10;1.00
5980;DHT22;3016;50.308;8.258;2022-07-06T11:07:10;20.20;1.00
5980;DHT22;3016;50.308;8.258;2022-07-06T11:10:12;20.60;1.00
5980;DHT22;3016;50.308;8.258;2022-07-06T11:13:29;21.00;1.00
5980;DHT22;3016;50.308;8.258;2022-07-06T11:16:32;21.40;1.00
5980;DHT22;3016;50.308;8.258;2022-07-06T11:19:34;21.50;1.00
5980;DHT22;3016;50.308;8.258;2022-07-06T11:22:37;21.40;1.00
5980;DHT22;3016;50.308;8.258;2022-07-06T11:25:38;21.40;1.00
5980;DHT22;3016;50.308;8.258;2022-07-06T11:28:39;20.80;1.00
5980;DHT22;3016;50.308;8.258;2022-07-06T11:31:41;20.30;1.00
5980;DHT22;3016;50.308;8.258;2022-07-06T11:34:44;20.50;1.00
5980;DHT22;3016;50.308;8.258;2022-07-06T11:37:44;20.80;1.00
5980;DHT22;3016;50.308;8.258;2022-07-06T11:40:46;21.30;1.00
5980;DHT22;3016;50.308;8.258;2022-07-06T11:43:47;21.30;1.00
5980;DHT22;3016;50.308;8.258;2022-07-06T11:46:51;21.10;1.00
5980;DHT22;3016;50.308;8.258;2022-07-06T11:49:52;21.00;1.00
5980;DHT22;3016;50.308;8.258;2022-07-06T11:52:52;20.60;1.00
5980;DHT22;3016;50.308;8.258;2022-07-06T11:55:54;20.40;1.00
5980;DHT22;3016;50.308;8.258;2022-07-06T11:58:57;20.30;1.00
5980;DHT22;3016;50.308;8.258;2022-07-06T12:05:12;20.80;1.00
5980;DHT22;3016;50.308;8.258;2022-07-06T12:08:13;20.60;1.00
5980;DHT22;3016;50.308;8.258;2022-07-06T12:11:28;20.60;1.00
5980;DHT22;3016;50.308;8.258;2022-07-06T12:14:32;20.80;1.00
5980;DHT22;3016;50.308;8.258;2022-07-06T12:17:34;20.50;1.00
5980;DHT22;3016;50.308;8.258;2022-07-06T12:20:35;20.40;1.00
5980;DHT22;3016;50.308;8.258;2022-07-06T12:23:41;20.20;1.00
5980;DHT22;3016;50.308;8.258;2022-07-06T12:26:42;20.40;1.00
5980;DHT22;3016;50.308;8.258;2022-07-06T12:29:44;20.60;1.00
5980;DHT22;3016;50.308;8.258;2022-07-06T12:32:45;21.10;1.00
5980;DHT22;3016;50.308;8.258;2022-07-06T12:35:46;21.30;1.00
5980;DHT22;3016;50.308;8.258;2022-07-06T12:38:47;21.40;1.00
5980;DHT22;3016;50.308;8.258;2022-07-06T12:41:52;21.60;1.00
5980;DHT22;3016;50.308;8.258;2022-07-06T12:44:57;21.60;1.00
5980;DHT22;3016;50.308;8.258;2022-07-06T12:48:02;21.90;1.00
5980;DHT22;3016;50.308;8.258;2022-07-06T12:51:05;21.90;1.00
5980;DHT22;3016;50.308;8.258;2022-07-06T12:54:12;21.80;1.00
5980;DHT22;3016;50.308;8.258;2022-07-06T12:57:19;21.70;1.00
5980;DHT22;3016;50.308;8.258;2022-07-06T13:00:22;21.90;1.00
5980;DHT22;3016;50.308;8.258;2022-07-06T13:03:23;22.10;1.00
5980;DHT22;3016;50.308;8.258;2022-07-06T13:06:33;21.70;1.00
5980;DHT22;3016;50.308;8.258;2022-07-06T13:09:34;21.30;1.00
5980;DHT22;3016;50.308;8.258;2022-07-06T13:12:37;21.60;1.00
5980;DHT22;3016;50.308;8.258;2022-07-06T13:15:42;22.10;1.00
5980;DHT22;3016;50.308;8.258;2022-07-06T13:18:43;22.20;1.00
5980;DHT22;3016;50.308;8.258;2022-07-06T13:21:44;22.50;1.00
5980;DHT22;3016;50.308;8.258;2022-07-06T13:24:45;22.90;1.00
5980;DHT22;3016;50.308;8.258;2022-07-06T13:27:45;23.10;1.00
5980;DHT22;3016;50.308;8.258;2022-07-06T13:30:47;22.60;1.00
5980;DHT22;3016;50.308;8.258;2022-07-06T13:33:47;22.10;1.00
5980;DHT22;3016;50.308;8.258;2022-07-06T13:36:48;21.80;1.00
5980;DHT22;3016;50.308;8.258;2022-07-06T13:39:49;21.40;1.00
5980;DHT22;3016;50.308;8.258;2022-07-06T13:42:49;21.10;1.00
5980;DHT22;3016;50.308;8.258;2022-07-06T13:45:50;21.00;1.00
5980;DHT22;3016;50.308;8.258;2022-07-06T13:48:51;21.10;1.00
5980;DHT22;3016;50.308;8.258;2022-07-06T13:51:51;21.50;1.00
5980;DHT22;3016;50.308;8.258;2022-07-06T13:54:52;21.70;1.00
5980;DHT22;3016;50.308;8.258;2022-07-06T13:57:53;21.60;1.00
5980;DHT22;3016;50.308;8.258;2022-07-06T14:00:54;21.20;1.00
5980;DHT22;3016;50.308;8.258;2022-07-06T14:03:54;21.10;1.00
5980;DHT22;3016;50.308;8.258;2022-07-06T14:06:55;20.90;1.00
5980;DHT22;3016;50.308;8.258;2022-07-06T14:09:56;20.90;1.00
5980;DHT22;3016;50.308;8.258;2022-07-06T14:12:57;20.70;1.00
5980;DHT22;3016;50.308;8.258;2022-07-06T14:15:58;20.70;1.00
5980;DHT22;3016;50.308;8.258;2022-07-06T14:18:58;20.60;1.00
5980;DHT22;3016;50.308;8.258;2022-07-06T14:21:59;20.50;1.00
5980;DHT22;3016;50.308;8.258;2022-07-06T14:25:00;20.40;1.00
5980;DHT22;3016;50.308;8.258;2022-07-06T14:28:03;20.30;1.00
5980;DHT22;3016;50.308;8.258;2022-07-06T14:31:04;20.20;1.00
5980;DHT22;3016;50.308;8.258;2022-07-06T14:34:05;20.30;1.00
5980;DHT22;3016;50.308;8.258;2022-07-06T14:37:06;20.30;1.00
5980;DHT22;3016;50.308;8.258;2022-07-06T14:40:07;20.40;1.00
5980;DHT22;3016;50.308;8.258;2022-07-06T14:43:09;20.40;1.00
5980;DHT22;3016;50.308;8.258;2022-07-06T14:46:10;20.40;1.00
5980;DHT22;3016;50.308;8.258;2022-07-06T14:49:11;20.50;1.00
5980;DHT22;3016;50.308;8.258;2022-07-06T14:52:12;20.60;1.00
5980;DHT22;3016;50.308;8.258;2022-07-06T14:55:12;20.50;1.00
5980;DHT22;3016;50.308;8.258;2022-07-06T14:58:13;20.50;1.00
5980;DHT22;3016;50.308;8.258;2022-07-06T15:01:17;20.40;1.00
5980;DHT22;3016;50.308;8.258;2022-07-06T15:04:18;20.40;1.00
5980;DHT22;3016;50.308;8.258;2022-07-06T15:07:19;20.40;1.00
5980;DHT22;3016;50.308;8.258;2022-07-06T15:10:19;20.60;1.00
5980;DHT22;3016;50.308;8.258;2022-07-06T15:13:20;20.70;1.00
5980;DHT22;3016;50.308;8.258;2022-07-06T15:16:21;20.80;1.00
5980;DHT22;3016;50.308;8.258;2022-07-06T15:19:21;20.90;1.00
5980;DHT22;3016;50.308;8.258;2022-07-06T15:22:22;20.80;1.00
5980;DHT22;3016;50.308;8.258;2022-07-06T15:25:23;20.80;1.00
5980;DHT22;3016;50.308;8.258;2022-07-06T15:28:24;20.90;1.00
5980;DHT22;3016;50.308;8.258;2022-07-06T15:31:26;20.80;1.00
5980;DHT22;3016;50.308;8.258;2022-07-06T15:34:27;21.30;1.00
5980;DHT22;3016;50.308;8.258;2022-07-06T15:37:28;22.10;1.00
5980;DHT22;3016;50.308;8.258;2022-07-06T15:40:29;23.00;1.00
5980;DHT22;3016;50.308;8.258;2022-07-06T15:43:34;23.30;1.00
5980;DHT22;3016;50.308;8.258;2022-07-06T15:46:35;22.80;1.00
5980;DHT22;3016;50.308;8.258;2022-07-06T15:49:36;22.10;1.00
5980;DHT22;3016;50.308;8.258;2022-07-06T15:52:37;21.70;1.00
5980;DHT22;3016;50.308;8.258;2022-07-06T15:55:38;21.60;1.00
5980;DHT22;3016;50.308;8.258;2022-07-06T15:58:38;21.50;1.00
5980;DHT22;3016;50.308;8.258;2022-07-06T16:01:39;21.50;1.00
5980;DHT22;3016;50.308;8.258;2022-07-06T16:04:40;21.50;1.00
5980;DHT22;3016;50.308;8.258;2022-07-06T16:07:40;21.60;1.00
5980;DHT22;3016;50.308;8.258;2022-07-06T16:10:41;21.70;1.00
5980;DHT22;3016;50.308;8.258;2022-07-06T16:13:43;21.60;1.00
5980;DHT22;3016;50.308;8.258;2022-07-06T16:16:45;21.60;1.00
5980;DHT22;3016;50.308;8.258;2022-07-06T16:19:46;21.30;1.00
5980;DHT22;3016;50.308;8.258;2022-07-06T16:22:47;21.00;1.00
5980;DHT22;3016;50.308;8.258;2022-07-06T16:25:48;21.20;1.00
5980;DHT22;3016;50.308;8.258;2022-07-06T16:28:52;21.50;1.00
5980;DHT22;3016;50.308;8.258;2022-07-06T16:31:53;21.80;1.00
5980;DHT22;3016;50.308;8.258;2022-07-06T16:34:53;21.70;1.00
5980;DHT22;3016;50.308;8.258;2022-07-06T16:37:54;21.30;1.00
5980;DHT22;3016;50.308;8.258;2022-07-06T16:40:55;21.20;1.00
5980;DHT22;3016;50.308;8.258;2022-07-06T16:43:56;21.70;1.00
5980;DHT22;3016;50.308;8.258;2022-07-06T16:46:56;22.40;1.00
5980;DHT22;3016;50.308;8.258;2022-07-06T16:49:57;22.80;1.00
5980;DHT22;3016;50.308;8.258;2022-07-06T16:52:58;22.90;1.00
5980;DHT22;3016;50.308;8.258;2022-07-06T16:55:59;22.90;1.00
5980;DHT22;3016;50.308;8.258;2022-07-06T16:58:59;22.80;1.00
5980;DHT22;3016;50.308;8.258;2022-07-06T17:02:00;22.40;1.00
5980;DHT22;3016;50.308;8.258;2022-07-06T17:05:01;22.00;1.00
5980;DHT22;3016;50.308;8.258;2022-07-06T17:08:02;22.20;1.00
5980;DHT22;3016;50.308;8.258;2022-07-06T17:11:03;22.40;1.00
5980;DHT22;3016;50.308;8.258;2022-07-06T17:14:05;22.00;1.00
5980;DHT22;3016;50.308;8.258;2022-07-06T17:17:05;22.00;1.00
5980;DHT22;3016;50.308;8.258;2022-07-06T17:20:07;22.30;1.00
5980;DHT22;3016;50.308;8.258;2022-07-06T17:23:08;22.50;1.00
5980;DHT22;3016;50.308;8.258;2022-07-06T17:26:08;22.20;1.00
5980;DHT22;3016;50.308;8.258;2022-07-06T17:29:09;22.30;1.00
5980;DHT22;3016;50.308;8.258;2022-07-06T17:32:10;23.20;1.00
5980;DHT22;3016;50.308;8.258;2022-07-06T17:35:11;23.80;1.00
5980;DHT22;3016;50.308;8.258;2022-07-06T17:38:12;23.60;1.00
5980;DHT22;3016;50.308;8.258;2022-07-06T17:41:14;22.90;1.00
5980;DHT22;3016;50.308;8.258;2022-07-06T17:44:15;22.30;1.00
5980;DHT22;3016;50.308;8.258;2022-07-06T17:47:15;22.50;1.00
5980;DHT22;3016;50.308;8.258;2022-07-06T17:50:17;23.20;1.00
5980;DHT22;3016;50.308;8.258;2022-07-06T17:53:18;23.80;1.00
5980;DHT22;3016;50.308;8.258;2022-07-06T17:56:19;24.30;1.00
5980;DHT22;3016;50.308;8.258;2022-07-06T17:59:21;24.30;1.00
5980;DHT22;3016;50.308;8.258;2022-07-06T18:02:21;24.20;1.00
5980;DHT22;3016;50.308;8.258;2022-07-06T18:05:22;24.60;1.00
5980;DHT22;3016;50.308;8.258;2022-07-06T18:08:23;24.50;1.00
5980;DHT22;3016;50.308;8.258;2022-07-06T18:11:24;24.40;1.00
5980;DHT22;3016;50.308;8.258;2022-07-06T18:14:24;24.20;1.00
5980;DHT22;3016;50.308;8.258;2022-07-06T18:17:25;23.90;1.00
5980;DHT22;3016;50.308;8.258;2022-07-06T18:20:26;23.30;1.00
5980;DHT22;3016;50.308;8.258;2022-07-06T18:23:27;22.40;1.00
5980;DHT22;3016;50.308;8.258;2022-07-06T18:26:27;21.60;1.00
5980;DHT22;3016;50.308;8.258;2022-07-06T18:29:28;21.20;1.00
5980;DHT22;3016;50.308;8.258;2022-07-06T18:32:29;20.70;1.00
5980;DHT22;3016;50.308;8.258;2022-07-06T18:35:29;20.30;1.00
5980;DHT22;3016;50.308;8.258;2022-07-06T18:38:30;20.10;1.00
5980;DHT22;3016;50.308;8.258;2022-07-06T18:41:31;19.90;1.00
5980;DHT22;3016;50.308;8.258;2022-07-06T18:44:32;19.60;1.00
5980;DHT22;3016;50.308;8.258;2022-07-06T18:47:32;19.40;1.00
5980;DHT22;3016;50.308;8.258;2022-07-06T18:50:34;19.20;1.00
5980;DHT22;3016;50.308;8.258;2022-07-06T18:53:35;19.00;1.00
5980;DHT22;3016;50.308;8.258;2022-07-06T18:56:36;18.90;1.00
5980;DHT22;3016;50.308;8.258;2022-07-06T18:59:36;18.80;1.00
5980;DHT22;3016;50.308;8.258;2022-07-06T19:02:37;18.70;1.00
5980;DHT22;3016;50.308;8.258;2022-07-06T19:05:38;18.70;1.00
5980;DHT22;3016;50.308;8.258;2022-07-06T19:08:39;18.60;1.00
5980;DHT22;3016;50.308;8.258;2022-07-06T19:11:40;18.50;1.00
5980;DHT22;3016;50.308;8.258;2022-07-06T19:14:40;18.30;1.00
5980;DHT22;3016;50.308;8.258;2022-07-06T19:17:41;18.20;1.00
5980;DHT22;3016;50.308;8.258;2022-07-06T19:20:42;18.10;1.00
5980;DHT22;3016;50.308;8.258;2022-07-06T19:23:44;18.10;1.00
5980;DHT22;3016;50.308;8.258;2022-07-06T19:26:45;17.90;1.00
5980;DHT22;3016;50.308;8.258;2022-07-06T19:29:46;17.80;1.00
5980;DHT22;3016;50.308;8.258;2022-07-06T19:32:47;17.60;1.00
5980;DHT22;3016;50.308;8.258;2022-07-06T19:35:48;17.50;1.00
5980;DHT22;3016;50.308;8.258;2022-07-06T19:38:49;17.30;1.00
5980;DHT22;3016;50.308;8.258;2022-07-06T19:41:49;17.20;1.00
5980;DHT22;3016;50.308;8.258;2022-07-06T19:44:50;17.00;1.00
5980;DHT22;3016;50.308;8.258;2022-07-06T19:47:51;16.70;1.00
5980;DHT22;3016;50.308;8.258;2022-07-06T19:50:51;16.40;1.00
5980;DHT22;3016;50.308;8.258;2022-07-06T19:53:53;16.20;1.00
5980;DHT22;3016;50.308;8.258;2022-07-06T19:56:53;16.10;1.00
5980;DHT22;3016;50.308;8.258;2022-07-06T19:59:55;16.00;1.00
5980;DHT22;3016;50.308;8.258;2022-07-06T20:02:56;15.80;1.00
5980;DHT22;3016;50.308;8.258;2022-07-06T20:05:57;15.70;1.00
5980;DHT22;3016;50.308;8.258;2022-07-06T20:08:58;15.60;1.00
5980;DHT22;3016;50.308;8.258;2022-07-06T20:11:59;15.50;1.00
5980;DHT22;3016;50.308;8.258;2022-07-06T20:14:59;15.50;1.00
5980;DHT22;3016;50.308;8.258;2022-07-06T20:18:01;15.40;1.00